world map with ERF marked

ERF - Airport

This information may not be accurate or current and is not valid for navigation or flight planning. No warranty of fitness for any purpose is made or implied.

flag of Thüringenflag of Germany

Donate via PayPal

Additional information is available on the NEW Great Circle Mapper

Location
City:  Erfurt, Thüringen, Germany
Name:Binderslebn
ICAO / IATA:EDDE / ERF

Details
Type:Airport (Flugplatz, Airfield)
Use:Public/Civil
Latitude:50°58'47"N (50.979811)
Longitude:10°57'29"E (10.958106)
Datum:WGS 1984
Elevation:1036 ft (316 m)
Runways:1
Longest:8530 × 164 ft (2600 × 50 m)

Time
Timezone:UTC+1 (DST+2)
Local Time:

Weather
METAR:EDDE  210120Z 21007KT CAVOK 09/08 Q1013
TAF:EDDE  202300Z 2100/2124 26008KT CAVOK BECMG 2108/2112 22015G28KT= TAF EDDG 202300Z 2100/2124 21006KT 9999 BKN025 BECMG 2106/2109 20012KT BECMG 2109/2112 21015G30KT TEMPO 2111/2114 23020G35KT 4000 +RA SCT009 BKN013 BECMG 2114/2116 28015G25KT PROB30 TEMPO 2116/2124 4000 TSRAGS BKN012CB

Related Locations
Nearby:
Farthest:CHT: 11828 mi / 19036 km
Waitangi [Tuuta], Chatham Islands, NZ

Find:

   beyond  
but within

Other Information
Maps:
Links:
Sources:

  


 


Great Circle Mapper   Great Circle Mapper
Great Circle Mapper FAQ   Great Circle Mapper FAQ
  Karl's Home Page
KLS²   KLS² Home
   GC on Facebook
Airlines of the World   Airlines of the World
Donate via PayPal


Copyright © 2004-2014, Karl L. Swartz. All rights reserved.
All trademarks mentioned herein belong to their respective owners.

Please see credits for attribution and copyright information.

Karl Swartz <karl@kls2.com>
  Powered by FreeBSD
Valid HTML 4.01!
Labeled with ICRA
hCard Microformat
Geo Microformat